createdAt,value
2022-10-20T00:01:25.170Z,59.37
2022-10-20T00:03:54.913Z,58.94
2022-10-20T00:06:29.391Z,59.01
2022-10-20T00:09:00.014Z,58.87
2022-10-20T00:11:29.227Z,59.28
2022-10-20T00:13:59.484Z,59.43
2022-10-20T00:16:29.361Z,59.23
2022-10-20T00:18:58.035Z,58.89
2022-10-20T00:21:28.190Z,58.93
2022-10-20T00:23:59.290Z,58.75
2022-10-20T00:26:28.643Z,59.28
2022-10-20T00:28:57.224Z,59.39
2022-10-20T00:31:26.628Z,59.22
2022-10-20T00:33:54.950Z,59.10
2022-10-20T00:36:24.657Z,59.32
2022-10-20T00:38:58.145Z,59.34
2022-10-20T00:41:27.867Z,59.18
2022-10-20T00:43:58.609Z,59.38
2022-10-20T00:46:37.367Z,59.40
2022-10-20T00:49:26.491Z,58.78
2022-10-20T00:51:55.269Z,58.97
2022-10-20T00:54:27.403Z,58.54
2022-10-20T00:56:57.564Z,59.10
2022-10-20T00:59:33.646Z,59.12
2022-10-20T01:02:05.667Z,60.12
2022-10-20T01:04:37.341Z,59.74
2022-10-20T01:07:05.860Z,60.03
2022-10-20T01:09:34.428Z,59.86
2022-10-20T01:12:43.579Z,60.69
2022-10-20T01:18:12.300Z,60.23
2022-10-20T01:20:52.553Z,59.62
2022-10-20T01:23:32.236Z,59.50
2022-10-20T01:26:26.982Z,59.12
2022-10-20T01:29:05.553Z,58.47
2022-10-20T01:32:12.403Z,58.51
2022-10-20T01:34:59.063Z,58.30
2022-10-20T01:37:49.026Z,58.39
2022-10-20T01:40:36.934Z,58.45
2022-10-20T01:43:09.591Z,58.95
2022-10-20T01:45:42.051Z,59.53
2022-10-20T01:48:14.214Z,59.46
2022-10-20T01:50:43.075Z,58.86
2022-10-20T01:53:11.334Z,59.16
2022-10-20T01:55:39.699Z,58.46
2022-10-20T01:58:28.514Z,59.25
2022-10-20T02:01:06.616Z,59.27
2022-10-20T02:03:50.244Z,59.54
2022-10-20T02:06:41.098Z,60.04
2022-10-20T02:09:18.227Z,60.43
2022-10-20T02:11:54.983Z,60.15
2022-10-20T02:14:23.904Z,59.96
2022-10-20T02:16:58.284Z,59.75
2022-10-20T02:19:31.914Z,59.35
2022-10-20T02:22:01.883Z,59.29
2022-10-20T02:24:35.797Z,60.07
2022-10-20T02:27:11.694Z,59.85
2022-10-20T02:30:06.323Z,60.59
2022-10-20T02:32:37.577Z,60.96
2022-10-20T02:35:10.526Z,60.78
2022-10-20T02:37:38.893Z,60.91
2022-10-20T02:40:08.843Z,61.23
2022-10-20T02:42:37.925Z,60.87
2022-10-20T02:45:07.753Z,60.53
2022-10-20T02:47:36.021Z,60.54
2022-10-20T02:50:05.362Z,60.66
2022-10-20T02:52:33.665Z,60.38
2022-10-20T02:55:02.015Z,60.76
2022-10-20T02:57:30.084Z,59.46
2022-10-20T02:59:58.346Z,59.94
2022-10-20T03:02:26.470Z,60.45
2022-10-20T03:04:54.738Z,60.64
2022-10-20T03:07:22.770Z,60.52
2022-10-20T03:09:51.188Z,60.28
2022-10-20T03:12:19.372Z,60.67
2022-10-20T03:14:47.777Z,60.36
2022-10-20T03:17:15.772Z,61.01
2022-10-20T03:19:44.267Z,61.26
2022-10-20T03:22:12.337Z,61.67
2022-10-20T03:24:40.926Z,61.55
2022-10-20T03:27:09.276Z,61.46
2022-10-20T03:29:37.544Z,61.93
2022-10-20T03:32:05.803Z,62.32
2022-10-20T03:34:34.147Z,62.29
2022-10-20T03:37:02.577Z,62.35
2022-10-20T03:39:30.814Z,62.00
2022-10-20T03:41:59.125Z,62.15
2022-10-20T03:44:27.344Z,61.86
2022-10-20T03:46:55.274Z,62.13
2022-10-20T03:49:23.604Z,61.79
2022-10-20T03:51:51.723Z,62.27
2022-10-20T03:54:19.979Z,62.28
2022-10-20T03:56:47.951Z,62.56
2022-10-20T03:59:16.228Z,62.13
2022-10-20T04:01:46.590Z,62.58
2022-10-20T04:04:15.983Z,63.25
2022-10-20T04:06:44.014Z,62.23
2022-10-20T04:09:12.438Z,62.74
2022-10-20T04:11:40.474Z,63.41
2022-10-20T04:14:08.774Z,64.01
2022-10-20T04:16:36.827Z,63.34
2022-10-20T04:19:05.111Z,63.59
2022-10-20T04:21:33.153Z,64.03
2022-10-20T04:24:01.431Z,64.54
2022-10-20T04:26:29.340Z,63.34
2022-10-20T04:28:57.632Z,63.98
2022-10-20T04:31:25.592Z,64.15
2022-10-20T04:33:53.853Z,64.34
2022-10-20T04:36:21.901Z,63.96
2022-10-20T04:38:50.114Z,63.69
2022-10-20T04:41:18.164Z,64.19
2022-10-20T04:43:52.592Z,63.77
2022-10-20T04:46:20.713Z,64.34
2022-10-20T04:48:48.952Z,63.84
2022-10-20T04:51:17.642Z,64.21
2022-10-20T04:53:46.563Z,63.14
2022-10-20T04:56:20.761Z,62.09
2022-10-20T04:58:57.993Z,63.57
2022-10-20T05:01:29.385Z,63.40
2022-10-20T05:03:57.814Z,63.35
2022-10-20T05:06:31.494Z,63.84
2022-10-20T05:09:02.627Z,64.15
2022-10-20T05:11:34.019Z,64.41
2022-10-20T05:14:02.325Z,64.38
2022-10-20T05:16:30.341Z,64.71
2022-10-20T05:18:58.665Z,63.99
2022-10-20T05:21:29.491Z,63.94
2022-10-20T05:24:02.906Z,64.11
2022-10-20T05:26:35.327Z,63.31
2022-10-20T05:29:09.246Z,64.40
2022-10-20T05:31:38.463Z,64.37
2022-10-20T05:34:07.926Z,64.99
2022-10-20T05:36:36.204Z,63.93
2022-10-20T05:39:04.768Z,64.34
2022-10-20T05:41:37.913Z,64.08
2022-10-20T05:44:11.697Z,64.48
2022-10-20T05:46:42.719Z,64.33
2022-10-20T05:49:16.824Z,64.53
2022-10-20T05:51:46.631Z,63.64
2022-10-20T05:54:15.311Z,63.39
2022-10-20T05:56:43.681Z,64.52
2022-10-20T05:59:12.123Z,63.94
2022-10-20T06:01:50.204Z,63.65
2022-10-20T06:04:25.096Z,64.00
2022-10-20T06:06:54.844Z,64.09
2022-10-20T06:09:24.713Z,63.79
2022-10-20T06:11:53.224Z,63.15
2022-10-20T06:14:26.310Z,62.13
2022-10-20T06:16:56.126Z,62.79
2022-10-20T06:19:25.549Z,63.59
2022-10-20T06:21:53.738Z,62.89
2022-10-20T06:24:22.277Z,61.85
2022-10-20T06:26:50.289Z,62.28
2022-10-20T06:29:19.585Z,61.42
2022-10-20T06:31:50.285Z,62.20
2022-10-20T06:34:21.407Z,61.34
2022-10-20T06:36:51.042Z,61.70
2022-10-20T06:39:22.587Z,61.07
2022-10-20T06:41:55.069Z,61.08
2022-10-20T06:44:24.737Z,60.24
2022-10-20T06:46:52.790Z,60.36
2022-10-20T06:49:21.788Z,60.78
2022-10-20T06:51:50.098Z,60.74
2022-10-20T06:54:18.827Z,60.29
2022-10-20T06:56:46.943Z,59.78
2022-10-20T06:59:15.759Z,60.29
2022-10-20T07:01:43.878Z,61.89
2022-10-20T07:04:15.363Z,60.69
2022-10-20T07:06:46.565Z,59.79
2022-10-20T07:09:19.015Z,59.39
2022-10-20T07:11:51.938Z,59.41
2022-10-20T07:14:20.433Z,59.19
2022-10-20T07:16:48.621Z,58.22
2022-10-20T07:19:17.146Z,58.18
2022-10-20T07:21:45.891Z,58.28
2022-10-20T07:24:15.771Z,57.02
2022-10-20T07:26:44.315Z,56.81
2022-10-20T07:29:14.846Z,56.86
2022-10-20T07:31:45.525Z,55.62
2022-10-20T07:34:31.210Z,55.96
2022-10-20T07:36:59.816Z,55.30
2022-10-20T07:39:28.247Z,54.66
2022-10-20T07:41:56.207Z,52.73
2022-10-20T07:44:24.579Z,52.74
2022-10-20T07:46:52.561Z,51.79
2022-10-20T07:52:09.111Z,52.01
2022-10-20T07:54:37.431Z,51.37
2022-10-20T07:57:05.386Z,50.41
2022-10-20T07:59:33.667Z,50.28
2022-10-20T08:02:01.882Z,50.00
2022-10-20T08:04:32.030Z,50.30
2022-10-20T08:07:00.975Z,50.03
2022-10-20T08:09:29.334Z,49.78
2022-10-20T08:11:57.473Z,49.65
2022-10-20T08:14:27.536Z,49.56
2022-10-20T08:16:58.253Z,49.84
2022-10-20T08:22:20.242Z,50.26
2022-10-20T08:24:48.482Z,50.59
2022-10-20T08:27:16.507Z,50.01
2022-10-20T08:29:50.913Z,49.40
2022-10-20T08:32:28.884Z,49.97
2022-10-20T08:34:57.222Z,50.49
2022-10-20T08:37:25.635Z,49.95
2022-10-20T08:39:53.854Z,49.86
2022-10-20T08:42:22.333Z,49.79
2022-10-20T08:44:51.433Z,49.30
2022-10-20T08:47:33.599Z,48.93
2022-10-20T08:50:10.004Z,48.39
2022-10-20T08:52:41.641Z,47.56
2022-10-20T08:58:01.957Z,45.83
2022-10-20T09:00:31.579Z,45.51
2022-10-20T09:03:24.585Z,45.02
2022-10-20T09:06:01.912Z,44.56
2022-10-20T09:08:32.997Z,45.54
2022-10-20T09:11:03.387Z,45.11
2022-10-20T09:13:33.094Z,45.28
2022-10-20T09:16:06.234Z,44.98
2022-10-20T09:18:35.387Z,44.81
2022-10-20T09:21:13.815Z,44.88
2022-10-20T09:23:45.867Z,46.01
2022-10-20T09:26:45.049Z,44.65
2022-10-20T09:29:14.447Z,45.02
2022-10-20T09:31:50.153Z,44.97
2022-10-20T09:34:24.331Z,45.24
2022-10-20T09:37:13.811Z,45.13
2022-10-20T09:39:55.720Z,45.09
2022-10-20T09:42:28.329Z,45.62
2022-10-20T09:45:01.732Z,45.42
2022-10-20T09:47:30.425Z,46.48
2022-10-20T09:50:02.464Z,48.63
2022-10-20T09:52:38.417Z,46.88
2022-10-20T09:55:30.895Z,45.71
2022-10-20T09:58:02.113Z,44.60
2022-10-20T10:00:47.335Z,42.90
2022-10-20T10:03:22.754Z,42.15
2022-10-20T10:05:53.748Z,41.57
2022-10-20T10:08:24.198Z,42.53
2022-10-20T10:11:05.544Z,43.25
2022-10-20T10:13:41.906Z,42.19
2022-10-20T10:16:15.606Z,41.92
2022-10-20T10:19:03.017Z,41.37
2022-10-20T10:21:45.884Z,40.77
2022-10-20T10:24:37.345Z,40.78
2022-10-20T10:27:19.277Z,41.99
2022-10-20T10:29:49.196Z,40.17
2022-10-20T10:32:26.800Z,39.36
2022-10-20T10:34:55.196Z,38.68
2022-10-20T10:37:23.755Z,39.47
2022-10-20T10:39:51.888Z,40.35
2022-10-20T10:42:45.515Z,40.22
2022-10-20T10:45:34.758Z,38.43
2022-10-20T10:48:21.313Z,36.78
2022-10-20T10:51:22.115Z,36.47
2022-10-20T10:54:02.941Z,36.54
2022-10-20T10:56:45.779Z,39.21
2022-10-20T10:59:37.534Z,37.18
2022-10-20T11:02:33.734Z,37.43
2022-10-20T11:05:11.254Z,37.40
2022-10-20T11:08:33.143Z,37.05
2022-10-20T11:11:16.414Z,36.31
2022-10-20T11:13:50.725Z,36.58
2022-10-20T11:16:31.715Z,36.11
2022-10-20T11:19:08.529Z,35.35
2022-10-20T11:21:46.215Z,35.46
2022-10-20T11:24:53.223Z,35.24
2022-10-20T11:27:26.674Z,34.95
2022-10-20T11:30:15.256Z,34.46
2022-10-20T11:32:51.950Z,33.74
2022-10-20T11:35:38.798Z,34.17
2022-10-20T11:38:19.063Z,35.47
2022-10-20T11:41:01.224Z,34.38
2022-10-20T11:43:46.685Z,34.01
2022-10-20T11:46:22.154Z,33.38
2022-10-20T11:48:56.642Z,33.56
2022-10-20T11:51:32.403Z,32.89
2022-10-20T11:54:14.616Z,33.26
2022-10-20T11:56:48.674Z,33.14
2022-10-20T11:59:30.031Z,33.12
2022-10-20T12:02:33.202Z,33.63
2022-10-20T12:05:10.197Z,33.23
2022-10-20T12:08:28.866Z,32.43
2022-10-20T12:11:10.394Z,31.77
2022-10-20T12:13:45.554Z,34.53
2022-10-20T12:16:33.805Z,35.75
2022-10-20T12:19:15.938Z,33.66
2022-10-20T12:22:16.343Z,36.85
2022-10-20T12:25:04.435Z,34.81
2022-10-20T12:27:33.154Z,34.16
2022-10-20T12:30:05.083Z,33.26
2022-10-20T12:32:58.975Z,34.65
2022-10-20T12:35:30.015Z,35.69
2022-10-20T12:38:04.570Z,35.39
2022-10-20T12:40:52.210Z,35.31
2022-10-20T12:43:49.302Z,35.10
2022-10-20T12:46:28.438Z,34.82
2022-10-20T12:49:00.572Z,35.14
2022-10-20T12:51:55.590Z,36.12
2022-10-20T12:54:39.557Z,36.69
2022-10-20T12:57:38.509Z,36.83
2022-10-20T13:00:28.543Z,35.59
2022-10-20T13:02:58.981Z,34.48
2022-10-20T13:05:42.160Z,34.34
2022-10-20T13:08:36.720Z,33.93
2022-10-20T13:11:23.297Z,35.20
2022-10-20T13:14:12.344Z,36.34
2022-10-20T13:17:09.732Z,35.48
2022-10-20T13:19:52.233Z,35.47
2022-10-20T13:22:47.073Z,36.04
2022-10-20T13:25:20.315Z,34.98
2022-10-20T13:27:50.001Z,35.20
2022-10-20T13:30:23.590Z,36.39
2022-10-20T13:33:33.821Z,36.83
2022-10-20T13:36:02.907Z,36.82
2022-10-20T13:39:03.076Z,36.90
2022-10-20T13:41:45.849Z,37.00
2022-10-20T13:44:55.111Z,36.44
2022-10-20T13:47:57.498Z,36.24
2022-10-20T13:50:35.520Z,36.00
2022-10-20T13:53:13.676Z,36.71
2022-10-20T13:56:20.928Z,36.07
2022-10-20T13:59:15.467Z,37.40
2022-10-20T14:01:49.166Z,36.86
2022-10-20T14:04:37.757Z,37.37
2022-10-20T14:07:13.908Z,37.97
2022-10-20T14:09:46.592Z,38.20
2022-10-20T14:12:23.757Z,38.51
2022-10-20T14:15:01.404Z,38.21
2022-10-20T14:17:30.309Z,38.75
2022-10-20T14:20:21.798Z,38.47
2022-10-20T14:22:51.417Z,38.16
2022-10-20T14:25:21.659Z,38.29
2022-10-20T14:27:53.752Z,37.91
2022-10-20T14:30:22.655Z,38.58
2022-10-20T14:32:51.847Z,38.83
2022-10-20T14:35:39.858Z,38.65
2022-10-20T14:38:21.037Z,38.97
2022-10-20T14:41:00.010Z,39.11
2022-10-20T14:43:41.843Z,40.79
2022-10-20T14:46:23.090Z,40.06
2022-10-20T14:48:52.042Z,40.12
2022-10-20T14:51:32.695Z,39.32
2022-10-20T14:54:19.972Z,40.14
2022-10-20T14:57:19.237Z,39.66
2022-10-20T14:59:56.162Z,39.71
2022-10-20T15:02:27.864Z,40.58
2022-10-20T15:04:55.988Z,41.14
2022-10-20T15:07:33.161Z,40.89
2022-10-20T15:10:16.113Z,41.00
2022-10-20T15:12:48.610Z,41.16
2022-10-20T15:15:19.140Z,41.18
2022-10-20T15:17:48.583Z,41.44
2022-10-20T15:20:34.747Z,42.90
2022-10-20T15:23:22.434Z,42.39
2022-10-20T15:26:10.881Z,41.93
2022-10-20T15:28:44.193Z,42.20
2022-10-20T15:31:24.605Z,42.80
2022-10-20T15:33:54.596Z,43.45
2022-10-20T15:36:29.765Z,44.43
2022-10-20T15:38:58.928Z,43.69
2022-10-20T15:41:30.749Z,43.58
2022-10-20T15:44:19.576Z,44.50
2022-10-20T15:46:49.792Z,44.94
2022-10-20T15:49:18.018Z,44.96
2022-10-20T15:51:47.559Z,45.75
2022-10-20T15:54:18.652Z,46.24
2022-10-20T15:56:46.837Z,45.94
2022-10-20T15:59:15.152Z,46.40
2022-10-20T16:01:43.175Z,45.97
2022-10-20T16:04:26.473Z,46.31
2022-10-20T16:06:57.905Z,46.14
2022-10-20T16:09:28.804Z,46.97
2022-10-20T16:11:57.026Z,46.58
2022-10-20T16:14:25.439Z,46.93
2022-10-20T16:16:53.495Z,47.17
2022-10-20T16:19:21.872Z,47.31
2022-10-20T16:21:49.889Z,48.27
2022-10-20T16:24:18.077Z,48.06
2022-10-20T16:26:45.927Z,48.19
2022-10-20T16:29:14.176Z,47.98
2022-10-20T16:31:42.172Z,48.34
2022-10-20T16:34:10.371Z,48.76
2022-10-20T16:36:38.585Z,49.26
2022-10-20T16:39:06.690Z,48.85
2022-10-20T16:41:34.686Z,49.63
2022-10-20T16:44:02.889Z,49.36
2022-10-20T16:46:30.788Z,49.54
2022-10-20T16:48:58.960Z,49.35
2022-10-20T16:51:27.343Z,49.72
2022-10-20T16:53:59.503Z,49.93
2022-10-20T16:56:30.700Z,49.64
2022-10-20T16:58:58.957Z,50.31
2022-10-20T17:01:26.920Z,50.31
2022-10-20T17:03:55.448Z,50.25
2022-10-20T17:06:25.888Z,50.48
2022-10-20T17:08:55.211Z,50.25
2022-10-20T17:11:27.037Z,51.41
2022-10-20T17:13:55.806Z,51.81
2022-10-20T17:16:32.483Z,51.99
2022-10-20T17:19:02.447Z,52.64
2022-10-20T17:21:31.721Z,52.90
2022-10-20T17:24:00.497Z,52.60
2022-10-20T17:26:32.875Z,52.86
2022-10-20T17:29:02.060Z,52.49
2022-10-20T17:31:30.779Z,52.56
2022-10-20T17:33:59.882Z,53.24
2022-10-20T17:36:29.651Z,52.89
2022-10-20T17:39:01.096Z,53.16
2022-10-20T17:41:30.507Z,53.52
2022-10-20T17:44:03.442Z,54.03
2022-10-20T17:46:31.431Z,52.96
2022-10-20T17:49:01.821Z,53.72
2022-10-20T17:51:33.682Z,53.71
2022-10-20T17:54:03.475Z,54.31
2022-10-20T17:56:36.007Z,54.23
2022-10-20T17:59:07.632Z,53.96
2022-10-20T18:01:39.006Z,54.36
2022-10-20T18:04:08.354Z,54.38
2022-10-20T18:06:37.382Z,54.47
2022-10-20T18:09:13.608Z,54.90
2022-10-20T18:11:44.793Z,55.10
2022-10-20T18:14:13.001Z,54.91
2022-10-20T18:16:41.610Z,55.10
2022-10-20T18:19:15.648Z,55.29
2022-10-20T18:21:44.405Z,55.50
2022-10-20T18:24:14.429Z,55.65
2022-10-20T18:26:43.108Z,55.91
2022-10-20T18:29:12.936Z,55.95
2022-10-20T18:31:42.320Z,55.10
2022-10-20T18:34:17.486Z,55.15
2022-10-20T18:36:46.364Z,55.49
2022-10-20T18:39:15.713Z,55.07
2022-10-20T18:41:45.654Z,54.93
2022-10-20T18:44:19.034Z,54.89
2022-10-20T18:46:47.851Z,55.36
2022-10-20T18:49:20.573Z,54.83
2022-10-20T18:51:48.428Z,55.24
2022-10-20T18:54:18.028Z,55.61
2022-10-20T18:56:46.683Z,55.00
2022-10-20T18:59:16.560Z,55.42
2022-10-20T19:01:45.298Z,55.46
2022-10-20T19:04:13.848Z,55.57
2022-10-20T19:06:47.127Z,55.60
2022-10-20T19:09:18.486Z,55.70
2022-10-20T19:11:47.464Z,56.13
2022-10-20T19:14:16.692Z,55.80
2022-10-20T19:16:47.099Z,56.04
2022-10-20T19:19:16.102Z,55.17
2022-10-20T19:21:44.552Z,55.25
2022-10-20T19:24:17.307Z,55.35
2022-10-20T19:26:57.129Z,55.10
2022-10-20T19:29:37.053Z,55.18
2022-10-20T19:32:07.266Z,55.46
2022-10-20T19:34:38.282Z,55.57
2022-10-20T19:37:07.765Z,55.06
2022-10-20T19:39:39.849Z,55.65
2022-10-20T19:42:09.872Z,54.85
2022-10-20T19:44:38.832Z,55.31
2022-10-20T19:47:08.761Z,56.22
2022-10-20T19:49:38.157Z,55.79
2022-10-20T19:52:07.430Z,55.98
2022-10-20T19:54:36.134Z,55.93
2022-10-20T19:57:06.792Z,56.65
2022-10-20T19:59:35.422Z,56.51
2022-10-20T20:02:04.006Z,57.28
2022-10-20T20:04:32.728Z,57.18
2022-10-20T20:07:02.393Z,57.88
2022-10-20T20:09:31.488Z,57.15
2022-10-20T20:11:59.471Z,57.46
2022-10-20T20:14:27.834Z,57.89
2022-10-20T20:16:55.897Z,57.75
2022-10-20T20:19:24.316Z,57.89
2022-10-20T20:21:52.706Z,58.04
2022-10-20T20:24:20.996Z,58.27
2022-10-20T20:26:50.387Z,58.65
2022-10-20T20:29:18.528Z,59.03
2022-10-20T20:31:48.286Z,58.66
2022-10-20T20:34:17.927Z,58.94
2022-10-20T20:36:45.966Z,58.76
2022-10-20T20:39:14.186Z,58.68
2022-10-20T20:41:43.168Z,58.76
2022-10-20T20:44:11.413Z,59.18
2022-10-20T20:46:39.511Z,59.19
2022-10-20T20:49:07.687Z,59.05
2022-10-20T20:51:35.678Z,59.45
2022-10-20T20:54:04.599Z,59.01
2022-10-20T20:56:33.169Z,59.20
2022-10-20T20:59:10.726Z,59.40
2022-10-20T22:45:42.703Z,60.25
2022-10-20T22:49:26.079Z,59.89
2022-10-20T23:42:14.277Z,60.47
